Silver Bay, Minnesota
Current Conditions -  °F | °C
As of 4:14 PM on Monday 26 Jan 2015 (Local Time) from KBFW Reporting Station
Light Snow Light Snow  
Wind Chill: 28°   Ceiling: 2200
Heat Index: 28°   Visibility: 4mi
Dew Point: 25°   Wind: 0mph
Humidity: 86%   Direction: NA
Pressure: 29.74"   Gusts: NA
Location:  47.29°N, 91.26°W
Report Text: KBFW 262214Z AUTO 00000KT 4SM -SN OVC022 M02/M04 A2974 RMK AO2
Loading
Personal Weather Stations






























Interactive Weather Map New forecast layout! Learn more

10-Day Weather Forecast

Advertisements
Track Severe Weather on mobile